sensor_id;sensor_type;location;lat;lon;timestamp;P1;durP1;ratioP1;P2;durP2;ratioP2
71637;SDS011;59485;43.542;-5.676;2022-07-17T00:03:30;36.45;;;21.70;;
71637;SDS011;59485;43.542;-5.676;2022-07-17T00:05:55;33.78;;;20.45;;
71637;SDS011;59485;43.542;-5.676;2022-07-17T00:08:21;34.40;;;21.33;;
71637;SDS011;59485;43.542;-5.676;2022-07-17T00:10:57;34.95;;;21.50;;
71637;SDS011;59485;43.542;-5.676;2022-07-17T00:13:23;36.72;;;20.98;;
71637;SDS011;59485;43.542;-5.676;2022-07-17T00:15:49;38.10;;;22.20;;
71637;SDS011;59485;43.542;-5.676;2022-07-17T00:18:15;39.35;;;21.15;;
71637;SDS011;59485;43.542;-5.676;2022-07-17T00:20:41;31.33;;;18.92;;
71637;SDS011;59485;43.542;-5.676;2022-07-17T00:23:08;40.95;;;19.05;;
71637;SDS011;59485;43.542;-5.676;2022-07-17T00:25:34;35.60;;;19.70;;
71637;SDS011;59485;43.542;-5.676;2022-07-17T00:28:00;34.63;;;18.80;;
71637;SDS011;59485;43.542;-5.676;2022-07-17T00:30:26;39.28;;;19.13;;
71637;SDS011;59485;43.542;-5.676;2022-07-17T00:32:52;39.70;;;19.77;;
71637;SDS011;59485;43.542;-5.676;2022-07-17T00:35:18;38.97;;;20.80;;
71637;SDS011;59485;43.542;-5.676;2022-07-17T00:37:49;37.60;;;19.17;;
71637;SDS011;59485;43.542;-5.676;2022-07-17T00:40:23;46.00;;;23.30;;
71637;SDS011;59485;43.542;-5.676;2022-07-17T00:42:50;36.97;;;21.33;;
71637;SDS011;59485;43.542;-5.676;2022-07-17T00:45:19;40.43;;;21.50;;
71637;SDS011;59485;43.542;-5.676;2022-07-17T00:50:41;31.98;;;19.58;;
71637;SDS011;59485;43.542;-5.676;2022-07-17T00:53:07;32.13;;;19.63;;
71637;SDS011;59485;43.542;-5.676;2022-07-17T00:55:33;33.45;;;19.70;;
71637;SDS011;59485;43.542;-5.676;2022-07-17T00:58:00;32.83;;;20.23;;
71637;SDS011;59485;43.542;-5.676;2022-07-17T01:00:27;36.78;;;21.92;;
71637;SDS011;59485;43.542;-5.676;2022-07-17T01:02:53;35.13;;;19.80;;
71637;SDS011;59485;43.542;-5.676;2022-07-17T01:05:20;33.22;;;18.45;;
71637;SDS011;59485;43.542;-5.676;2022-07-17T01:07:47;32.33;;;18.80;;
71637;SDS011;59485;43.542;-5.676;2022-07-17T01:10:14;37.10;;;20.27;;
71637;SDS011;59485;43.542;-5.676;2022-07-17T01:12:46;34.95;;;20.52;;
71637;SDS011;59485;43.542;-5.676;2022-07-17T01:15:13;35.70;;;21.02;;
71637;SDS011;59485;43.542;-5.676;2022-07-17T01:17:43;35.35;;;20.42;;
71637;SDS011;59485;43.542;-5.676;2022-07-17T01:20:10;37.65;;;21.90;;
71637;SDS011;59485;43.542;-5.676;2022-07-17T01:22:42;47.10;;;25.40;;
71637;SDS011;59485;43.542;-5.676;2022-07-17T01:25:09;48.95;;;28.55;;
71637;SDS011;59485;43.542;-5.676;2022-07-17T01:27:35;47.28;;;28.38;;
71637;SDS011;59485;43.542;-5.676;2022-07-17T01:30:01;48.23;;;27.30;;
71637;SDS011;59485;43.542;-5.676;2022-07-17T01:32:34;43.38;;;27.92;;
71637;SDS011;59485;43.542;-5.676;2022-07-17T01:35:01;51.10;;;29.88;;
71637;SDS011;59485;43.542;-5.676;2022-07-17T01:37:28;46.17;;;26.95;;
71637;SDS011;59485;43.542;-5.676;2022-07-17T01:39:54;42.75;;;28.50;;
71637;SDS011;59485;43.542;-5.676;2022-07-17T01:42:21;42.23;;;26.20;;
71637;SDS011;59485;43.542;-5.676;2022-07-17T01:44:47;46.95;;;26.45;;
71637;SDS011;59485;43.542;-5.676;2022-07-17T01:47:13;40.17;;;27.42;;
71637;SDS011;59485;43.542;-5.676;2022-07-17T01:49:45;43.65;;;27.98;;
71637;SDS011;59485;43.542;-5.676;2022-07-17T01:52:12;42.63;;;27.20;;
71637;SDS011;59485;43.542;-5.676;2022-07-17T01:54:38;48.28;;;27.73;;
71637;SDS011;59485;43.542;-5.676;2022-07-17T01:57:04;41.00;;;28.30;;
71637;SDS011;59485;43.542;-5.676;2022-07-17T01:59:30;45.72;;;28.02;;
71637;SDS011;59485;43.542;-5.676;2022-07-17T02:01:58;41.77;;;27.53;;
71637;SDS011;59485;43.542;-5.676;2022-07-17T02:06:49;40.42;;;27.92;;
71637;SDS011;59485;43.542;-5.676;2022-07-17T02:09:14;43.07;;;29.53;;
71637;SDS011;59485;43.542;-5.676;2022-07-17T02:12:00;47.95;;;32.08;;
71637;SDS011;59485;43.542;-5.676;2022-07-17T02:16:51;46.63;;;29.10;;
71637;SDS011;59485;43.542;-5.676;2022-07-17T02:19:17;48.75;;;31.05;;
71637;SDS011;59485;43.542;-5.676;2022-07-17T02:21:43;45.60;;;29.10;;
71637;SDS011;59485;43.542;-5.676;2022-07-17T02:24:08;43.70;;;28.67;;
71637;SDS011;59485;43.542;-5.676;2022-07-17T02:26:34;46.50;;;29.50;;
71637;SDS011;59485;43.542;-5.676;2022-07-17T02:29:00;45.40;;;29.70;;
71637;SDS011;59485;43.542;-5.676;2022-07-17T02:31:25;45.47;;;30.67;;
71637;SDS011;59485;43.542;-5.676;2022-07-17T02:33:51;50.97;;;30.20;;
71637;SDS011;59485;43.542;-5.676;2022-07-17T02:36:17;48.80;;;31.58;;
71637;SDS011;59485;43.542;-5.676;2022-07-17T02:38:42;50.17;;;34.00;;
71637;SDS011;59485;43.542;-5.676;2022-07-17T02:41:08;56.30;;;33.63;;
71637;SDS011;59485;43.542;-5.676;2022-07-17T02:43:34;47.40;;;32.10;;
71637;SDS011;59485;43.542;-5.676;2022-07-17T02:46:00;55.13;;;32.97;;
71637;SDS011;59485;43.542;-5.676;2022-07-17T02:50:51;49.28;;;33.83;;
71637;SDS011;59485;43.542;-5.676;2022-07-17T02:53:16;53.40;;;32.57;;
71637;SDS011;59485;43.542;-5.676;2022-07-17T02:55:42;44.73;;;29.93;;
71637;SDS011;59485;43.542;-5.676;2022-07-17T02:58:08;49.03;;;32.03;;
71637;SDS011;59485;43.542;-5.676;2022-07-17T03:00:33;49.40;;;32.72;;
71637;SDS011;59485;43.542;-5.676;2022-07-17T03:02:59;45.27;;;30.17;;
71637;SDS011;59485;43.542;-5.676;2022-07-17T03:05:24;43.87;;;29.80;;
71637;SDS011;59485;43.542;-5.676;2022-07-17T03:07:50;49.67;;;31.58;;
71637;SDS011;59485;43.542;-5.676;2022-07-17T03:10:15;41.53;;;30.87;;
71637;SDS011;59485;43.542;-5.676;2022-07-17T03:12:41;43.92;;;31.98;;
71637;SDS011;59485;43.542;-5.676;2022-07-17T03:15:08;62.23;;;33.77;;
71637;SDS011;59485;43.542;-5.676;2022-07-17T03:17:34;52.08;;;32.13;;
71637;SDS011;59485;43.542;-5.676;2022-07-17T03:19:59;50.13;;;33.90;;
71637;SDS011;59485;43.542;-5.676;2022-07-17T03:22:26;50.28;;;31.75;;
71637;SDS011;59485;43.542;-5.676;2022-07-17T03:24:52;49.10;;;32.88;;
71637;SDS011;59485;43.542;-5.676;2022-07-17T03:27:17;45.50;;;31.70;;
71637;SDS011;59485;43.542;-5.676;2022-07-17T03:29:43;47.30;;;30.93;;
71637;SDS011;59485;43.542;-5.676;2022-07-17T03:32:09;41.13;;;30.00;;
71637;SDS011;59485;43.542;-5.676;2022-07-17T03:34:36;49.53;;;31.70;;
71637;SDS011;59485;43.542;-5.676;2022-07-17T03:37:02;41.20;;;28.92;;
71637;SDS011;59485;43.542;-5.676;2022-07-17T03:39:29;42.42;;;30.73;;
71637;SDS011;59485;43.542;-5.676;2022-07-17T03:41:54;45.20;;;29.60;;
71637;SDS011;59485;43.542;-5.676;2022-07-17T03:44:20;44.10;;;31.27;;
71637;SDS011;59485;43.542;-5.676;2022-07-17T03:46:46;41.70;;;30.20;;
71637;SDS011;59485;43.542;-5.676;2022-07-17T03:49:12;43.60;;;30.73;;
71637;SDS011;59485;43.542;-5.676;2022-07-17T03:51:40;43.72;;;29.75;;
71637;SDS011;59485;43.542;-5.676;2022-07-17T03:54:08;42.87;;;29.83;;
71637;SDS011;59485;43.542;-5.676;2022-07-17T03:56:34;43.55;;;29.80;;
71637;SDS011;59485;43.542;-5.676;2022-07-17T03:59:02;41.03;;;29.27;;
71637;SDS011;59485;43.542;-5.676;2022-07-17T04:01:30;37.42;;;28.35;;
71637;SDS011;59485;43.542;-5.676;2022-07-17T04:03:55;40.37;;;28.30;;
71637;SDS011;59485;43.542;-5.676;2022-07-17T04:06:26;37.78;;;28.98;;
71637;SDS011;59485;43.542;-5.676;2022-07-17T04:08:58;42.77;;;28.90;;
71637;SDS011;59485;43.542;-5.676;2022-07-17T04:11:23;49.13;;;29.73;;
71637;SDS011;59485;43.542;-5.676;2022-07-17T04:13:54;43.83;;;28.77;;
71637;SDS011;59485;43.542;-5.676;2022-07-17T04:16:20;46.90;;;29.83;;
71637;SDS011;59485;43.542;-5.676;2022-07-17T04:18:51;40.38;;;26.45;;
71637;SDS011;59485;43.542;-5.676;2022-07-17T04:21:18;40.88;;;28.60;;
71637;SDS011;59485;43.542;-5.676;2022-07-17T04:26:09;42.65;;;29.58;;
71637;SDS011;59485;43.542;-5.676;2022-07-17T04:28:35;39.05;;;29.20;;
71637;SDS011;59485;43.542;-5.676;2022-07-17T04:31:01;45.97;;;31.93;;
71637;SDS011;59485;43.542;-5.676;2022-07-17T04:33:29;49.42;;;32.92;;
71637;SDS011;59485;43.542;-5.676;2022-07-17T04:35:55;47.67;;;32.57;;
71637;SDS011;59485;43.542;-5.676;2022-07-17T04:38:20;55.45;;;35.05;;
71637;SDS011;59485;43.542;-5.676;2022-07-17T04:40:46;49.80;;;34.87;;
71637;SDS011;59485;43.542;-5.676;2022-07-17T04:43:11;46.63;;;32.37;;
71637;SDS011;59485;43.542;-5.676;2022-07-17T04:45:37;49.83;;;35.70;;
71637;SDS011;59485;43.542;-5.676;2022-07-17T04:48:06;49.20;;;34.13;;
71637;SDS011;59485;43.542;-5.676;2022-07-17T04:50:31;51.10;;;31.92;;
71637;SDS011;59485;43.542;-5.676;2022-07-17T04:52:58;56.88;;;36.17;;
71637;SDS011;59485;43.542;-5.676;2022-07-17T04:55:25;51.05;;;34.90;;
71637;SDS011;59485;43.542;-5.676;2022-07-17T04:57:51;46.43;;;32.77;;
71637;SDS011;59485;43.542;-5.676;2022-07-17T05:00:16;45.47;;;33.10;;
71637;SDS011;59485;43.542;-5.676;2022-07-17T05:02:42;50.50;;;31.57;;
71637;SDS011;59485;43.542;-5.676;2022-07-17T05:05:08;44.70;;;32.20;;
71637;SDS011;59485;43.542;-5.676;2022-07-17T05:07:33;48.70;;;31.30;;
71637;SDS011;59485;43.542;-5.676;2022-07-17T05:09:59;46.15;;;31.90;;
71637;SDS011;59485;43.542;-5.676;2022-07-17T05:12:25;44.67;;;31.60;;
71637;SDS011;59485;43.542;-5.676;2022-07-17T05:14:50;49.67;;;31.58;;
71637;SDS011;59485;43.542;-5.676;2022-07-17T05:17:36;50.13;;;32.10;;
71637;SDS011;59485;43.542;-5.676;2022-07-17T05:20:02;53.40;;;31.45;;
71637;SDS011;59485;43.542;-5.676;2022-07-17T05:22:28;57.72;;;34.22;;
71637;SDS011;59485;43.542;-5.676;2022-07-17T05:24:54;51.83;;;34.30;;
71637;SDS011;59485;43.542;-5.676;2022-07-17T05:27:19;52.67;;;33.53;;
71637;SDS011;59485;43.542;-5.676;2022-07-17T05:29:46;52.03;;;29.70;;
71637;SDS011;59485;43.542;-5.676;2022-07-17T05:32:12;38.75;;;22.45;;
71637;SDS011;59485;43.542;-5.676;2022-07-17T05:34:38;35.23;;;16.80;;
71637;SDS011;59485;43.542;-5.676;2022-07-17T05:37:03;37.17;;;18.77;;
71637;SDS011;59485;43.542;-5.676;2022-07-17T05:39:29;41.05;;;20.50;;
71637;SDS011;59485;43.542;-5.676;2022-07-17T05:41:54;52.03;;;22.97;;
71637;SDS011;59485;43.542;-5.676;2022-07-17T05:44:20;46.20;;;20.83;;
71637;SDS011;59485;43.542;-5.676;2022-07-17T05:46:45;39.95;;;18.25;;
71637;SDS011;59485;43.542;-5.676;2022-07-17T05:49:11;51.50;;;22.23;;
71637;SDS011;59485;43.542;-5.676;2022-07-17T05:51:36;46.87;;;20.87;;
71637;SDS011;59485;43.542;-5.676;2022-07-17T05:54:02;43.08;;;19.65;;
71637;SDS011;59485;43.542;-5.676;2022-07-17T05:56:28;37.63;;;17.40;;
71637;SDS011;59485;43.542;-5.676;2022-07-17T05:58:53;36.75;;;18.27;;
71637;SDS011;59485;43.542;-5.676;2022-07-17T06:01:19;41.73;;;18.03;;
71637;SDS011;59485;43.542;-5.676;2022-07-17T06:03:44;49.07;;;20.03;;
71637;SDS011;59485;43.542;-5.676;2022-07-17T06:06:10;40.35;;;19.83;;
71637;SDS011;59485;43.542;-5.676;2022-07-17T06:08:36;53.13;;;21.53;;
71637;SDS011;59485;43.542;-5.676;2022-07-17T06:11:01;46.97;;;19.15;;
71637;SDS011;59485;43.542;-5.676;2022-07-17T06:13:27;35.07;;;18.10;;
71637;SDS011;59485;43.542;-5.676;2022-07-17T06:15:52;43.03;;;17.45;;
71637;SDS011;59485;43.542;-5.676;2022-07-17T06:18:18;38.40;;;16.97;;
71637;SDS011;59485;43.542;-5.676;2022-07-17T06:20:44;47.17;;;17.20;;
71637;SDS011;59485;43.542;-5.676;2022-07-17T06:23:09;33.03;;;19.00;;
71637;SDS011;59485;43.542;-5.676;2022-07-17T06:25:35;42.43;;;18.50;;
71637;SDS011;59485;43.542;-5.676;2022-07-17T06:28:00;38.20;;;17.90;;
71637;SDS011;59485;43.542;-5.676;2022-07-17T06:30:26;34.78;;;19.00;;
71637;SDS011;59485;43.542;-5.676;2022-07-17T06:32:51;38.40;;;17.40;;
71637;SDS011;59485;43.542;-5.676;2022-07-17T06:35:17;35.90;;;17.50;;
71637;SDS011;59485;43.542;-5.676;2022-07-17T06:37:42;37.25;;;18.42;;
71637;SDS011;59485;43.542;-5.676;2022-07-17T06:40:08;36.97;;;17.73;;
71637;SDS011;59485;43.542;-5.676;2022-07-17T06:42:33;60.97;;;20.43;;
71637;SDS011;59485;43.542;-5.676;2022-07-17T06:44:59;41.72;;;18.42;;
71637;SDS011;59485;43.542;-5.676;2022-07-17T06:47:24;35.00;;;19.23;;
71637;SDS011;59485;43.542;-5.676;2022-07-17T06:49:50;42.47;;;20.13;;
71637;SDS011;59485;43.542;-5.676;2022-07-17T06:52:16;40.60;;;22.93;;
71637;SDS011;59485;43.542;-5.676;2022-07-17T06:54:41;41.15;;;25.55;;
71637;SDS011;59485;43.542;-5.676;2022-07-17T06:57:07;45.97;;;23.13;;
71637;SDS011;59485;43.542;-5.676;2022-07-17T06:59:33;39.03;;;20.70;;
71637;SDS011;59485;43.542;-5.676;2022-07-17T07:01:58;39.28;;;20.02;;
71637;SDS011;59485;43.542;-5.676;2022-07-17T07:04:24;40.33;;;21.27;;
71637;SDS011;59485;43.542;-5.676;2022-07-17T07:06:49;38.15;;;19.73;;
71637;SDS011;59485;43.542;-5.676;2022-07-17T07:09:15;39.07;;;20.57;;
71637;SDS011;59485;43.542;-5.676;2022-07-17T07:11:40;34.17;;;17.80;;
71637;SDS011;59485;43.542;-5.676;2022-07-17T07:14:06;32.35;;;17.92;;
71637;SDS011;59485;43.542;-5.676;2022-07-17T07:16:33;42.92;;;19.23;;
71637;SDS011;59485;43.542;-5.676;2022-07-17T07:18:59;48.10;;;20.00;;
71637;SDS011;59485;43.542;-5.676;2022-07-17T07:21:25;59.78;;;21.98;;
71637;SDS011;59485;43.542;-5.676;2022-07-17T07:23:51;42.60;;;19.65;;
71637;SDS011;59485;43.542;-5.676;2022-07-17T07:26:18;34.58;;;18.45;;
71637;SDS011;59485;43.542;-5.676;2022-07-17T07:28:43;42.83;;;19.53;;
71637;SDS011;59485;43.542;-5.676;2022-07-17T07:31:09;43.10;;;19.83;;
71637;SDS011;59485;43.542;-5.676;2022-07-17T07:33:35;44.15;;;20.15;;
71637;SDS011;59485;43.542;-5.676;2022-07-17T07:36:01;44.75;;;20.63;;
71637;SDS011;59485;43.542;-5.676;2022-07-17T07:38:27;34.97;;;18.80;;
71637;SDS011;59485;43.542;-5.676;2022-07-17T07:40:53;41.40;;;19.07;;
71637;SDS011;59485;43.542;-5.676;2022-07-17T07:43:19;37.73;;;20.00;;
71637;SDS011;59485;43.542;-5.676;2022-07-17T07:45:45;37.15;;;19.10;;
71637;SDS011;59485;43.542;-5.676;2022-07-17T07:48:11;44.28;;;20.58;;
71637;SDS011;59485;43.542;-5.676;2022-07-17T07:50:36;39.77;;;20.43;;
71637;SDS011;59485;43.542;-5.676;2022-07-17T07:53:02;37.47;;;20.23;;
71637;SDS011;59485;43.542;-5.676;2022-07-17T07:55:27;41.83;;;21.20;;
71637;SDS011;59485;43.542;-5.676;2022-07-17T07:58:06;42.50;;;21.37;;
71637;SDS011;59485;43.542;-5.676;2022-07-17T08:00:33;45.08;;;21.27;;
71637;SDS011;59485;43.542;-5.676;2022-07-17T08:02:59;41.25;;;22.20;;
71637;SDS011;59485;43.542;-5.676;2022-07-17T08:05:25;43.03;;;21.20;;
71637;SDS011;59485;43.542;-5.676;2022-07-17T08:07:50;33.83;;;21.60;;
71637;SDS011;59485;43.542;-5.676;2022-07-17T08:10:16;34.07;;;19.47;;
71637;SDS011;59485;43.542;-5.676;2022-07-17T08:12:42;35.67;;;20.63;;
71637;SDS011;59485;43.542;-5.676;2022-07-17T08:15:07;39.40;;;21.07;;
71637;SDS011;59485;43.542;-5.676;2022-07-17T08:17:33;32.45;;;19.50;;
71637;SDS011;59485;43.542;-5.676;2022-07-17T08:19:59;37.13;;;19.63;;
71637;SDS011;59485;43.542;-5.676;2022-07-17T08:22:24;28.60;;;17.97;;
71637;SDS011;59485;43.542;-5.676;2022-07-17T08:24:50;34.15;;;20.60;;
71637;SDS011;59485;43.542;-5.676;2022-07-17T08:27:18;28.03;;;17.53;;
71637;SDS011;59485;43.542;-5.676;2022-07-17T08:29:43;29.55;;;17.00;;
71637;SDS011;59485;43.542;-5.676;2022-07-17T08:32:10;35.30;;;18.63;;
71637;SDS011;59485;43.542;-5.676;2022-07-17T08:34:36;33.00;;;18.02;;
71637;SDS011;59485;43.542;-5.676;2022-07-17T08:37:01;34.13;;;17.43;;
71637;SDS011;59485;43.542;-5.676;2022-07-17T08:39:27;38.03;;;18.52;;
71637;SDS011;59485;43.542;-5.676;2022-07-17T08:41:52;32.10;;;19.33;;
71637;SDS011;59485;43.542;-5.676;2022-07-17T08:46:43;38.85;;;20.58;;
71637;SDS011;59485;43.542;-5.676;2022-07-17T08:49:09;37.40;;;21.80;;
71637;SDS011;59485;43.542;-5.676;2022-07-17T08:51:36;41.70;;;22.58;;
71637;SDS011;59485;43.542;-5.676;2022-07-17T08:54:02;33.67;;;20.70;;
71637;SDS011;59485;43.542;-5.676;2022-07-17T08:56:28;37.27;;;20.50;;
71637;SDS011;59485;43.542;-5.676;2022-07-17T08:58:54;34.85;;;20.42;;
71637;SDS011;59485;43.542;-5.676;2022-07-17T09:01:21;36.70;;;19.60;;
71637;SDS011;59485;43.542;-5.676;2022-07-17T09:04:01;32.03;;;20.58;;
71637;SDS011;59485;43.542;-5.676;2022-07-17T09:06:35;50.45;;;22.58;;
71637;SDS011;59485;43.542;-5.676;2022-07-17T09:09:06;29.45;;;19.40;;
71637;SDS011;59485;43.542;-5.676;2022-07-17T09:11:48;30.77;;;19.15;;
71637;SDS011;59485;43.542;-5.676;2022-07-17T09:14:15;31.10;;;18.53;;
71637;SDS011;59485;43.542;-5.676;2022-07-17T09:16:55;31.27;;;18.98;;
71637;SDS011;59485;43.542;-5.676;2022-07-17T09:19:43;27.10;;;18.25;;
71637;SDS011;59485;43.542;-5.676;2022-07-17T09:24:47;31.95;;;18.75;;
71637;SDS011;59485;43.542;-5.676;2022-07-17T09:29:50;36.70;;;19.52;;
71637;SDS011;59485;43.542;-5.676;2022-07-17T09:32:22;29.30;;;18.30;;
71637;SDS011;59485;43.542;-5.676;2022-07-17T09:34:50;31.60;;;18.88;;
71637;SDS011;59485;43.542;-5.676;2022-07-17T09:37:17;29.88;;;18.27;;
71637;SDS011;59485;43.542;-5.676;2022-07-17T09:39:43;28.37;;;17.80;;
71637;SDS011;59485;43.542;-5.676;2022-07-17T09:42:09;28.85;;;18.80;;
71637;SDS011;59485;43.542;-5.676;2022-07-17T09:47:33;30.33;;;19.70;;
71637;SDS011;59485;43.542;-5.676;2022-07-17T09:50:00;31.50;;;20.25;;
71637;SDS011;59485;43.542;-5.676;2022-07-17T09:52:31;30.80;;;18.93;;
71637;SDS011;59485;43.542;-5.676;2022-07-17T09:54:58;28.50;;;18.88;;
71637;SDS011;59485;43.542;-5.676;2022-07-17T09:57:31;29.83;;;18.83;;
71637;SDS011;59485;43.542;-5.676;2022-07-17T09:59:59;25.60;;;17.00;;
71637;SDS011;59485;43.542;-5.676;2022-07-17T10:02:27;24.80;;;17.17;;
71637;SDS011;59485;43.542;-5.676;2022-07-17T10:04:53;24.13;;;18.10;;
71637;SDS011;59485;43.542;-5.676;2022-07-17T10:07:20;25.77;;;16.90;;
71637;SDS011;59485;43.542;-5.676;2022-07-17T10:09:46;23.25;;;16.55;;
71637;SDS011;59485;43.542;-5.676;2022-07-17T10:12:11;24.33;;;16.00;;
71637;SDS011;59485;43.542;-5.676;2022-07-17T10:14:39;24.58;;;17.42;;
71637;SDS011;59485;43.542;-5.676;2022-07-17T10:17:12;20.90;;;16.25;;
71637;SDS011;59485;43.542;-5.676;2022-07-17T10:19:48;25.85;;;16.80;;
71637;SDS011;59485;43.542;-5.676;2022-07-17T10:22:17;26.63;;;17.13;;
71637;SDS011;59485;43.542;-5.676;2022-07-17T10:24:47;23.38;;;16.08;;
71637;SDS011;59485;43.542;-5.676;2022-07-17T10:27:27;24.52;;;15.55;;
71637;SDS011;59485;43.542;-5.676;2022-07-17T10:30:01;22.70;;;14.93;;
71637;SDS011;59485;43.542;-5.676;2022-07-17T10:32:37;21.70;;;14.32;;
71637;SDS011;59485;43.542;-5.676;2022-07-17T10:35:05;18.37;;;13.70;;
71637;SDS011;59485;43.542;-5.676;2022-07-17T10:45:13;22.27;;;14.23;;
71637;SDS011;59485;43.542;-5.676;2022-07-17T10:47:42;20.73;;;13.67;;
71637;SDS011;59485;43.542;-5.676;2022-07-17T10:50:08;20.50;;;12.98;;
71637;SDS011;59485;43.542;-5.676;2022-07-17T10:52:35;16.95;;;11.43;;
71637;SDS011;59485;43.542;-5.676;2022-07-17T10:55:01;19.07;;;12.47;;
71637;SDS011;59485;43.542;-5.676;2022-07-17T10:57:30;19.33;;;13.35;;
71637;SDS011;59485;43.542;-5.676;2022-07-17T10:59:56;16.40;;;11.82;;
71637;SDS011;59485;43.542;-5.676;2022-07-17T11:02:29;18.10;;;12.83;;
71637;SDS011;59485;43.542;-5.676;2022-07-17T11:05:05;16.20;;;12.90;;
71637;SDS011;59485;43.542;-5.676;2022-07-17T11:07:34;21.38;;;14.55;;
71637;SDS011;59485;43.542;-5.676;2022-07-17T11:10:00;24.10;;;13.98;;
71637;SDS011;59485;43.542;-5.676;2022-07-17T11:12:34;26.37;;;16.93;;
71637;SDS011;59485;43.542;-5.676;2022-07-17T11:15:03;20.63;;;12.77;;
71637;SDS011;59485;43.542;-5.676;2022-07-17T11:17:30;17.90;;;12.38;;
71637;SDS011;59485;43.542;-5.676;2022-07-17T11:19:57;26.37;;;15.67;;
71637;SDS011;59485;43.542;-5.676;2022-07-17T11:22:24;23.02;;;13.55;;
71637;SDS011;59485;43.542;-5.676;2022-07-17T11:24:50;21.00;;;13.18;;
71637;SDS011;59485;43.542;-5.676;2022-07-17T11:27:20;17.27;;;12.25;;
71637;SDS011;59485;43.542;-5.676;2022-07-17T11:29:48;18.00;;;14.68;;
71637;SDS011;59485;43.542;-5.676;2022-07-17T11:32:14;18.57;;;13.70;;
71637;SDS011;59485;43.542;-5.676;2022-07-17T11:34:40;17.60;;;13.57;;
71637;SDS011;59485;43.542;-5.676;2022-07-17T11:37:06;24.53;;;14.60;;
71637;SDS011;59485;43.542;-5.676;2022-07-17T11:39:38;19.90;;;15.05;;
71637;SDS011;59485;43.542;-5.676;2022-07-17T11:42:10;20.52;;;15.27;;
71637;SDS011;59485;43.542;-5.676;2022-07-17T11:44:37;24.40;;;16.95;;
71637;SDS011;59485;43.542;-5.676;2022-07-17T11:47:03;23.38;;;15.95;;
71637;SDS011;59485;43.542;-5.676;2022-07-17T11:49:31;26.50;;;19.40;;
71637;SDS011;59485;43.542;-5.676;2022-07-17T11:52:07;26.30;;;18.02;;
71637;SDS011;59485;43.542;-5.676;2022-07-17T11:57:13;32.92;;;21.60;;
71637;SDS011;59485;43.542;-5.676;2022-07-17T11:59:40;32.72;;;21.50;;
71637;SDS011;59485;43.542;-5.676;2022-07-17T12:02:10;31.77;;;21.37;;
71637;SDS011;59485;43.542;-5.676;2022-07-17T12:04:56;43.03;;;23.83;;
71637;SDS011;59485;43.542;-5.676;2022-07-17T12:07:25;42.33;;;25.35;;
71637;SDS011;59485;43.542;-5.676;2022-07-17T12:09:52;34.00;;;21.40;;
71637;SDS011;59485;43.542;-5.676;2022-07-17T12:12:22;31.10;;;20.60;;
71637;SDS011;59485;43.542;-5.676;2022-07-17T12:14:58;28.30;;;20.57;;
71637;SDS011;59485;43.542;-5.676;2022-07-17T12:17:25;33.72;;;21.33;;
71637;SDS011;59485;43.542;-5.676;2022-07-17T12:20:03;30.75;;;21.80;;
71637;SDS011;59485;43.542;-5.676;2022-07-17T12:22:29;33.38;;;22.52;;
71637;SDS011;59485;43.542;-5.676;2022-07-17T12:24:56;31.88;;;22.60;;
71637;SDS011;59485;43.542;-5.676;2022-07-17T12:27:22;33.47;;;24.00;;
71637;SDS011;59485;43.542;-5.676;2022-07-17T12:29:49;34.92;;;23.88;;
71637;SDS011;59485;43.542;-5.676;2022-07-17T12:32:15;41.50;;;27.55;;
71637;SDS011;59485;43.542;-5.676;2022-07-17T12:34:45;37.87;;;26.37;;
71637;SDS011;59485;43.542;-5.676;2022-07-17T12:37:15;48.78;;;28.65;;
71637;SDS011;59485;43.542;-5.676;2022-07-17T12:39:46;42.38;;;30.23;;
71637;SDS011;59485;43.542;-5.676;2022-07-17T12:42:13;37.83;;;29.02;;
71637;SDS011;59485;43.542;-5.676;2022-07-17T12:44:42;40.80;;;31.38;;
71637;SDS011;59485;43.542;-5.676;2022-07-17T12:47:08;46.27;;;31.33;;
71637;SDS011;59485;43.542;-5.676;2022-07-17T12:49:34;47.15;;;34.15;;
71637;SDS011;59485;43.542;-5.676;2022-07-17T12:52:00;46.47;;;33.60;;
71637;SDS011;59485;43.542;-5.676;2022-07-17T12:54:26;49.80;;;35.27;;
71637;SDS011;59485;43.542;-5.676;2022-07-17T12:56:52;54.97;;;35.58;;
71637;SDS011;59485;43.542;-5.676;2022-07-17T12:59:18;47.92;;;36.78;;
71637;SDS011;59485;43.542;-5.676;2022-07-17T13:01:44;46.57;;;35.40;;
71637;SDS011;59485;43.542;-5.676;2022-07-17T13:04:10;51.20;;;37.67;;
71637;SDS011;59485;43.542;-5.676;2022-07-17T13:06:36;53.92;;;35.28;;
71637;SDS011;59485;43.542;-5.676;2022-07-17T13:09:02;55.27;;;38.13;;
71637;SDS011;59485;43.542;-5.676;2022-07-17T13:11:28;50.03;;;34.85;;
71637;SDS011;59485;43.542;-5.676;2022-07-17T13:13:54;54.33;;;34.53;;
71637;SDS011;59485;43.542;-5.676;2022-07-17T13:16:19;51.20;;;36.65;;
71637;SDS011;59485;43.542;-5.676;2022-07-17T13:18:45;53.10;;;33.33;;
71637;SDS011;59485;43.542;-5.676;2022-07-17T13:21:11;56.92;;;37.22;;
71637;SDS011;59485;43.542;-5.676;2022-07-17T13:23:37;49.42;;;36.05;;
71637;SDS011;59485;43.542;-5.676;2022-07-17T13:26:03;48.57;;;35.43;;
71637;SDS011;59485;43.542;-5.676;2022-07-17T13:28:29;67.40;;;45.00;;
71637;SDS011;59485;43.542;-5.676;2022-07-17T13:30:55;60.10;;;42.47;;
71637;SDS011;59485;43.542;-5.676;2022-07-17T13:33:24;78.55;;;50.90;;
71637;SDS011;59485;43.542;-5.676;2022-07-17T13:35:50;54.67;;;35.80;;
71637;SDS011;59485;43.542;-5.676;2022-07-17T13:38:15;60.63;;;40.43;;
71637;SDS011;59485;43.542;-5.676;2022-07-17T13:40:41;82.63;;;54.70;;
71637;SDS011;59485;43.542;-5.676;2022-07-17T13:43:07;48.43;;;30.90;;
71637;SDS011;59485;43.542;-5.676;2022-07-17T13:45:32;43.72;;;30.23;;
71637;SDS011;59485;43.542;-5.676;2022-07-17T13:48:03;48.17;;;33.97;;
71637;SDS011;59485;43.542;-5.676;2022-07-17T13:50:41;58.58;;;37.70;;
71637;SDS011;59485;43.542;-5.676;2022-07-17T13:53:07;45.08;;;30.63;;
71637;SDS011;59485;43.542;-5.676;2022-07-17T13:55:48;39.08;;;28.80;;
71637;SDS011;59485;43.542;-5.676;2022-07-17T13:58:17;41.58;;;26.67;;
71637;SDS011;59485;43.542;-5.676;2022-07-17T14:00:45;40.63;;;27.67;;
71637;SDS011;59485;43.542;-5.676;2022-07-17T14:03:11;41.38;;;27.25;;
71637;SDS011;59485;43.542;-5.676;2022-07-17T14:05:47;37.38;;;25.95;;
71637;SDS011;59485;43.542;-5.676;2022-07-17T14:08:14;39.35;;;26.45;;
71637;SDS011;59485;43.542;-5.676;2022-07-17T14:10:46;31.23;;;23.33;;
71637;SDS011;59485;43.542;-5.676;2022-07-17T14:13:15;35.65;;;23.80;;
71637;SDS011;59485;43.542;-5.676;2022-07-17T14:15:42;33.40;;;24.27;;
71637;SDS011;59485;43.542;-5.676;2022-07-17T14:18:08;37.42;;;24.85;;
71637;SDS011;59485;43.542;-5.676;2022-07-17T14:20:42;43.60;;;25.27;;
71637;SDS011;59485;43.542;-5.676;2022-07-17T14:23:23;31.85;;;23.55;;
71637;SDS011;59485;43.542;-5.676;2022-07-17T14:25:58;34.08;;;23.65;;
71637;SDS011;59485;43.542;-5.676;2022-07-17T14:28:39;34.13;;;22.20;;
71637;SDS011;59485;43.542;-5.676;2022-07-17T14:33:45;35.47;;;24.20;;
71637;SDS011;59485;43.542;-5.676;2022-07-17T14:36:12;40.78;;;23.65;;
71637;SDS011;59485;43.542;-5.676;2022-07-17T14:38:37;34.88;;;23.85;;
71637;SDS011;59485;43.542;-5.676;2022-07-17T14:41:03;34.27;;;22.13;;
71637;SDS011;59485;43.542;-5.676;2022-07-17T14:43:29;39.90;;;23.63;;
71637;SDS011;59485;43.542;-5.676;2022-07-17T14:45:55;32.33;;;22.33;;
71637;SDS011;59485;43.542;-5.676;2022-07-17T14:48:21;42.78;;;24.85;;